Time;durP1;ratioP1;P1;durP2;ratioP2;P2;SDS_P1;SDS_P2;PMS_P1;PMS_P2;Temp;Humidity;BMP_temperature;BMP_pressure;BME280_temperature;BME280_humidity;BME280_pressure;Samples;Min_cycle;Max_cycle;Signal;HPM_P1;HPM_P2
2023/03/14 00:01:17;;;;;;;7.97;4.82;;;;;;;;;;6251266;28;20052;-61
2023/03/14 00:04:18;;;;;;;13.15;5.15;;;;;;;;;;6249862;28;20061;-61
2023/03/14 00:07:18;;;;;;;10.68;4.97;;;;;;;;;;6266554;28;20464;-61
2023/03/14 00:10:19;;;;;;;12.07;5.95;;;;;;;;;;6262118;28;20045;-61
2023/03/14 00:13:19;;;;;;;8.80;5.15;;;;;;;;;;6260181;28;20056;-60
2023/03/14 00:16:21;;;;;;;9.88;4.75;;;;;;;;;;6258865;28;20049;-60
2023/03/14 00:19:21;;;;;;;7.47;3.45;;;;;;;;;;6256671;28;20037;-61
2023/03/14 00:22:22;;;;;;;8.18;5.00;;;;;;;;;;6262816;28;20099;-60
2023/03/14 00:25:22;;;;;;;30.20;13.82;;;;;;;;;;6261358;28;20057;-60
2023/03/14 00:28:23;;;;;;;10.30;4.47;;;;;;;;;;6259284;28;20057;-60
2023/03/14 00:31:24;;;;;;;26.60;9.73;;;;;;;;;;6261238;28;20087;-61
2023/03/14 00:34:29;;;;;;;28.58;11.40;;;;;;;;;;6261558;28;20041;-61
2023/03/14 00:37:30;;;;;;;23.88;10.90;;;;;;;;;;6262789;28;20037;-61
2023/03/14 00:40:30;;;;;;;34.33;12.15;;;;;;;;;;6265112;28;20045;-61
2023/03/14 00:43:31;;;;;;;25.70;12.38;;;;;;;;;;6264968;28;20424;-61
2023/03/14 00:46:31;;;;;;;29.75;12.77;;;;;;;;;;6263442;28;20148;-60
2023/03/14 00:49:32;;;;;;;28.83;12.70;;;;;;;;;;6260998;28;20071;-61
2023/03/14 00:52:33;;;;;;;30.20;12.95;;;;;;;;;;6263076;28;20167;-61
2023/03/14 00:55:38;;;;;;;30.27;14.25;;;;;;;;;;6269570;28;20045;-61
2023/03/14 00:58:39;;;;;;;34.28;16.13;;;;;;;;;;6260650;28;20037;-61
2023/03/14 01:01:40;;;;;;;40.20;16.33;;;;;;;;;;6262875;28;20068;-61
2023/03/14 01:04:43;;;;;;;33.03;13.32;;;;;;;;;;6244094;28;20057;-60
2023/03/14 01:07:43;;;;;;;28.80;13.13;;;;;;;;;;6266260;28;20084;-60
2023/03/14 01:10:44;;;;;;;34.20;14.55;;;;;;;;;;6264242;28;20041;-60
2023/03/14 01:13:44;;;;;;;36.70;15.43;;;;;;;;;;6261265;28;20131;-60
2023/03/14 01:16:45;;;;;;;47.88;21.50;;;;;;;;;;6259906;28;20048;-60
2023/03/14 01:19:45;;;;;;;45.00;19.45;;;;;;;;;;6257635;28;20051;-60
2023/03/14 01:22:46;;;;;;;39.97;19.20;;;;;;;;;;6261331;28;20052;-59
2023/03/14 01:25:46;;;;;;;43.60;19.40;;;;;;;;;;6262621;28;20444;-60
2023/03/14 01:28:48;;;;;;;40.05;19.70;;;;;;;;;;6257615;28;20076;-62
2023/03/14 01:31:49;;;;;;;34.38;17.98;;;;;;;;;;6260480;28;20080;-59
2023/03/14 01:34:50;;;;;;;37.97;17.90;;;;;;;;;;6258643;28;20045;-61
2023/03/14 01:37:50;;;;;;;41.17;18.30;;;;;;;;;;6264967;28;20056;-61
2023/03/14 01:40:51;;;;;;;42.35;20.17;;;;;;;;;;6262958;28;20056;-61
2023/03/14 01:43:52;;;;;;;50.63;20.60;;;;;;;;;;6259667;28;20049;-61
2023/03/14 01:46:53;;;;;;;35.13;16.73;;;;;;;;;;6259310;28;20053;-61
2023/03/14 01:50:06;;;;;;;33.53;16.50;;;;;;;;;;6262143;28;20045;-61
2023/03/14 01:53:07;;;;;;;39.05;16.48;;;;;;;;;;6267865;28;20187;-61
2023/03/14 01:56:12;;;;;;;34.25;15.88;;;;;;;;;;6263129;28;20460;-61
2023/03/14 01:59:13;;;;;;;35.05;15.52;;;;;;;;;;6258168;28;20531;-61
2023/03/14 02:02:15;;;;;;;28.67;13.90;;;;;;;;;;6264102;28;20060;-61
2023/03/14 02:05:21;;;;;;;22.58;11.43;;;;;;;;;;6261563;28;20069;-61
2023/03/14 02:08:22;;;;;;;24.42;11.98;;;;;;;;;;6261798;28;20130;-61
2023/03/14 02:11:28;;;;;;;20.48;10.75;;;;;;;;;;6257399;28;20480;-61
2023/03/14 02:14:32;;;;;;;23.77;11.43;;;;;;;;;;6261680;28;20048;-61
2023/03/14 02:17:34;;;;;;;21.60;11.52;;;;;;;;;;6261441;28;20064;-61
2023/03/14 02:20:48;;;;;;;22.98;9.35;;;;;;;;;;6263614;28;20057;-61
2023/03/14 02:24:17;;;;;;;20.77;9.02;;;;;;;;;;6263711;28;20090;-61
2023/03/14 02:27:19;;;;;;;21.88;10.68;;;;;;;;;;6265138;28;20048;-61
2023/03/14 02:30:23;;;;;;;21.02;10.75;;;;;;;;;;6264712;28;20075;-61
2023/03/14 02:33:23;;;;;;;21.90;10.60;;;;;;;;;;6264387;28;20053;-61
2023/03/14 02:36:25;;;;;;;18.45;10.00;;;;;;;;;;6266424;28;20115;-61
2023/03/14 02:39:34;;;;;;;16.77;8.68;;;;;;;;;;6262743;28;20083;-61
2023/03/14 02:42:35;;;;;;;15.85;9.10;;;;;;;;;;6259664;28;20049;-62
2023/03/14 02:45:42;;;;;;;18.48;10.50;;;;;;;;;;6260674;28;20419;-61
2023/03/14 02:48:48;;;;;;;16.63;9.23;;;;;;;;;;6261753;28;20118;-61
2023/03/14 02:51:49;;;;;;;17.10;8.43;;;;;;;;;;6262262;28;20959;-61
2023/03/14 02:54:50;;;;;;;14.15;7.40;;;;;;;;;;6259412;28;20345;-61
2023/03/14 02:57:50;;;;;;;15.50;8.30;;;;;;;;;;6260592;28;20068;-61
2023/03/14 03:00:52;;;;;;;14.23;7.57;;;;;;;;;;6260217;28;20688;-61
2023/03/14 03:03:52;;;;;;;15.65;7.75;;;;;;;;;;6258406;28;20044;-61
2023/03/14 03:06:53;;;;;;;14.15;7.13;;;;;;;;;;6259516;28;20506;-61
2023/03/14 03:09:54;;;;;;;20.02;12.30;;;;;;;;;;6259639;28;20045;-61
2023/03/14 03:12:55;;;;;;;22.05;13.40;;;;;;;;;;6258141;28;20045;-61
2023/03/14 03:15:55;;;;;;;18.70;9.55;;;;;;;;;;6260115;28;20044;-61
2023/03/14 03:18:56;;;;;;;22.10;10.68;;;;;;;;;;6260477;28;20044;-61
2023/03/14 03:21:57;;;;;;;19.90;10.60;;;;;;;;;;6259041;28;20496;-60
2023/03/14 03:24:58;;;;;;;18.93;9.50;;;;;;;;;;6256669;28;20055;-61
2023/03/14 03:27:59;;;;;;;17.73;9.50;;;;;;;;;;6257220;28;20079;-61
2023/03/14 03:31:06;;;;;;;17.50;9.32;;;;;;;;;;6262130;28;20063;-61
2023/03/14 03:34:07;;;;;;;19.52;9.52;;;;;;;;;;6262550;28;20128;-61
2023/03/14 03:37:08;;;;;;;19.67;9.32;;;;;;;;;;6260478;28;20087;-61
2023/03/14 03:40:09;;;;;;;17.48;9.52;;;;;;;;;;6259954;28;20045;-61
2023/03/14 03:43:10;;;;;;;22.83;12.68;;;;;;;;;;6257063;28;20114;-61
2023/03/14 03:46:10;;;;;;;16.98;8.02;;;;;;;;;;6260903;28;20136;-60
2023/03/14 03:49:11;;;;;;;11.32;5.47;;;;;;;;;;6260075;28;20118;-61
2023/03/14 03:52:11;;;;;;;8.10;4.13;;;;;;;;;;6261535;28;20399;-61
2023/03/14 03:55:12;;;;;;;11.32;4.72;;;;;;;;;;6258862;28;20411;-61
2023/03/14 03:58:13;;;;;;;11.63;4.90;;;;;;;;;;6261722;28;20442;-61
2023/03/14 04:01:14;;;;;;;9.02;4.95;;;;;;;;;;6261345;28;20057;-61
2023/03/14 04:04:14;;;;;;;9.93;5.10;;;;;;;;;;6260284;28;20052;-61
2023/03/14 04:07:15;;;;;;;12.95;5.45;;;;;;;;;;6258058;28;20103;-61
2023/03/14 04:10:16;;;;;;;13.75;6.75;;;;;;;;;;6264316;28;20055;-61
2023/03/14 04:13:16;;;;;;;11.52;6.68;;;;;;;;;;6268039;28;20428;-61
2023/03/14 04:16:20;;;;;;;12.73;6.00;;;;;;;;;;6268083;28;20049;-62
2023/03/14 04:19:21;;;;;;;15.38;8.70;;;;;;;;;;6263915;28;20044;-61
2023/03/14 04:22:21;;;;;;;12.15;7.88;;;;;;;;;;6271228;28;20048;-62
2023/03/14 04:25:22;;;;;;;13.90;8.98;;;;;;;;;;6266028;28;20049;-61
2023/03/14 04:28:23;;;;;;;14.07;6.47;;;;;;;;;;6270035;28;20138;-61
2023/03/14 04:31:23;;;;;;;11.50;5.88;;;;;;;;;;6263285;28;20057;-61
2023/03/14 04:34:24;;;;;;;11.35;5.35;;;;;;;;;;6262715;28;20055;-61
2023/03/14 04:37:25;;;;;;;9.15;5.07;;;;;;;;;;6262008;28;20068;-61
2023/03/14 04:40:25;;;;;;;16.25;6.70;;;;;;;;;;6262680;28;20056;-61
2023/03/14 04:43:26;;;;;;;15.40;7.15;;;;;;;;;;6260768;28;20053;-61
2023/03/14 04:46:27;;;;;;;13.32;6.20;;;;;;;;;;6262897;28;20131;-61
2023/03/14 04:49:27;;;;;;;13.15;6.20;;;;;;;;;;6263311;28;20525;-61
2023/03/14 04:52:29;;;;;;;8.57;3.83;;;;;;;;;;6263652;28;20491;-61
2023/03/14 04:55:32;;;;;;;12.30;5.40;;;;;;;;;;6260541;28;20136;-61
2023/03/14 04:58:32;;;;;;;8.45;5.07;;;;;;;;;;6261549;28;20393;-61
2023/03/14 05:01:33;;;;;;;9.73;4.88;;;;;;;;;;6264527;28;20069;-61
2023/03/14 05:04:34;;;;;;;10.90;4.68;;;;;;;;;;6261771;28;20049;-61
2023/03/14 05:07:34;;;;;;;6.47;3.70;;;;;;;;;;6260352;28;20442;-61
2023/03/14 05:10:35;;;;;;;10.00;4.55;;;;;;;;;;6265178;28;20527;-61
2023/03/14 05:13:36;;;;;;;10.55;5.65;;;;;;;;;;6264495;28;20407;-61
2023/03/14 05:16:36;;;;;;;12.50;6.57;;;;;;;;;;6262614;28;20045;-61
2023/03/14 05:19:37;;;;;;;14.40;6.07;;;;;;;;;;6264056;28;20107;-61
2023/03/14 05:22:37;;;;;;;16.35;6.38;;;;;;;;;;6261023;28;20041;-61
2023/03/14 05:25:38;;;;;;;12.60;6.40;;;;;;;;;;6262786;28;20416;-61
2023/03/14 05:28:38;;;;;;;16.10;6.93;;;;;;;;;;6263071;28;20053;-62
2023/03/14 05:31:39;;;;;;;13.13;6.53;;;;;;;;;;6261713;28;20077;-61
2023/03/14 05:34:39;;;;;;;14.05;6.18;;;;;;;;;;6262995;28;20049;-61
2023/03/14 05:37:40;;;;;;;15.88;6.63;;;;;;;;;;6264247;28;20132;-61
2023/03/14 05:40:40;;;;;;;25.58;11.40;;;;;;;;;;6262734;28;20862;-61
2023/03/14 05:43:41;;;;;;;39.05;16.00;;;;;;;;;;6258615;28;20372;-61
2023/03/14 05:46:42;;;;;;;94.45;37.42;;;;;;;;;;6260664;28;20207;-61
2023/03/14 05:49:42;;;;;;;46.78;19.25;;;;;;;;;;6260890;28;20144;-62
2023/03/14 05:52:43;;;;;;;29.40;12.20;;;;;;;;;;6260245;28;20060;-62
2023/03/14 05:55:43;;;;;;;14.13;6.22;;;;;;;;;;6257007;28;20049;-61
2023/03/14 05:58:44;;;;;;;11.07;4.68;;;;;;;;;;6260057;28;20091;-61
2023/03/14 06:01:45;;;;;;;10.40;3.85;;;;;;;;;;6264735;28;20045;-61
2023/03/14 06:04:45;;;;;;;10.27;4.10;;;;;;;;;;6263521;28;20497;-62
2023/03/14 06:07:46;;;;;;;11.50;4.68;;;;;;;;;;6264101;28;20055;-61
2023/03/14 06:10:46;;;;;;;8.05;4.00;;;;;;;;;;6265259;28;20774;-61
2023/03/14 06:13:47;;;;;;;8.45;3.47;;;;;;;;;;6262172;28;20643;-62
2023/03/14 06:16:48;;;;;;;6.70;3.35;;;;;;;;;;6264135;28;20512;-61
2023/03/14 06:19:49;;;;;;;9.38;3.75;;;;;;;;;;6264366;28;20041;-61
2023/03/14 06:22:50;;;;;;;9.10;3.90;;;;;;;;;;6261764;28;20044;-61
2023/03/14 06:25:51;;;;;;;8.10;3.55;;;;;;;;;;6264572;28;20073;-61
2023/03/14 06:28:53;;;;;;;11.23;3.83;;;;;;;;;;6264066;28;20091;-61
2023/03/14 06:31:54;;;;;;;8.27;3.80;;;;;;;;;;6262158;28;20053;-61
2023/03/14 06:34:54;;;;;;;8.02;3.50;;;;;;;;;;6263402;28;20044;-61
2023/03/14 06:37:55;;;;;;;6.55;3.13;;;;;;;;;;6263145;28;20068;-61
2023/03/14 06:40:55;;;;;;;7.10;3.58;;;;;;;;;;6261811;28;20045;-61
2023/03/14 06:43:56;;;;;;;8.40;3.47;;;;;;;;;;6255604;28;20130;-61
2023/03/14 06:46:57;;;;;;;8.13;3.72;;;;;;;;;;6258912;28;20048;-62
2023/03/14 06:49:57;;;;;;;8.52;3.60;;;;;;;;;;6261116;28;20556;-61
2023/03/14 06:52:58;;;;;;;7.45;3.80;;;;;;;;;;6257059;28;20041;-61
2023/03/14 06:55:58;;;;;;;8.60;3.45;;;;;;;;;;6259578;28;20469;-61
2023/03/14 06:58:59;;;;;;;7.38;3.60;;;;;;;;;;6260168;28;20053;-61
2023/03/14 07:01:59;;;;;;;7.00;3.38;;;;;;;;;;6259596;28;20049;-62
2023/03/14 07:05:00;;;;;;;8.32;3.85;;;;;;;;;;6258771;28;20045;-62
2023/03/14 07:08:01;;;;;;;6.55;3.45;;;;;;;;;;6259682;28;20373;-62
2023/03/14 07:11:01;;;;;;;9.60;3.72;;;;;;;;;;6258178;28;20450;-61
2023/03/14 07:14:02;;;;;;;8.90;3.80;;;;;;;;;;6257955;28;20083;-61
2023/03/14 07:17:03;;;;;;;8.43;3.78;;;;;;;;;;6258314;28;20045;-61
2023/03/14 07:20:05;;;;;;;8.10;3.60;;;;;;;;;;6261916;28;20538;-61
2023/03/14 07:23:05;;;;;;;7.03;3.60;;;;;;;;;;6259573;28;20052;-61
2023/03/14 07:26:06;;;;;;;7.35;3.10;;;;;;;;;;6259335;28;20059;-59
2023/03/14 07:29:07;;;;;;;9.07;3.53;;;;;;;;;;6258928;28;20420;-61
2023/03/14 07:32:08;;;;;;;6.13;3.38;;;;;;;;;;6256071;28;20424;-60
2023/03/14 07:35:08;;;;;;;7.00;3.50;;;;;;;;;;6263997;28;20439;-59
2023/03/14 07:38:10;;;;;;;9.57;3.90;;;;;;;;;;6262182;28;20049;-62
2023/03/14 07:41:10;;;;;;;7.47;3.97;;;;;;;;;;6259617;28;20071;-61
2023/03/14 07:44:11;;;;;;;9.57;3.92;;;;;;;;;;6264610;28;20041;-61
2023/03/14 07:47:11;;;;;;;7.50;3.60;;;;;;;;;;6263025;28;20415;-61
2023/03/14 07:50:12;;;;;;;6.75;3.70;;;;;;;;;;6264866;28;20075;-62
2023/03/14 07:53:13;;;;;;;6.75;3.95;;;;;;;;;;6262191;28;20037;-61
2023/03/14 07:56:13;;;;;;;6.80;3.80;;;;;;;;;;6263307;28;20171;-61
2023/03/14 07:59:14;;;;;;;8.88;4.00;;;;;;;;;;6263271;28;20056;-61
2023/03/14 08:02:14;;;;;;;7.28;3.38;;;;;;;;;;6263795;28;20099;-61
2023/03/14 08:05:15;;;;;;;6.60;3.33;;;;;;;;;;6262752;28;20064;-61
2023/03/14 08:08:17;;;;;;;8.52;3.30;;;;;;;;;;6261773;28;20048;-61
2023/03/14 08:11:17;;;;;;;7.23;3.23;;;;;;;;;;6260042;28;20049;-61
2023/03/14 08:14:18;;;;;;;8.65;3.60;;;;;;;;;;6261449;28;20045;-62
2023/03/14 08:17:18;;;;;;;6.93;3.45;;;;;;;;;;6262217;28;20045;-61
2023/03/14 08:20:25;;;;;;;6.55;3.50;;;;;;;;;;6262646;28;20048;-61
2023/03/14 08:23:26;;;;;;;7.65;3.03;;;;;;;;;;6262734;28;20044;-61
2023/03/14 08:26:26;;;;;;;7.30;3.30;;;;;;;;;;6262051;28;20126;-61
2023/03/14 08:29:27;;;;;;;7.75;3.60;;;;;;;;;;6262563;28;20068;-61
2023/03/14 08:32:28;;;;;;;6.05;3.50;;;;;;;;;;6261344;28;20534;-61
2023/03/14 08:35:28;;;;;;;9.60;3.97;;;;;;;;;;6262461;28;20045;-61
2023/03/14 08:38:29;;;;;;;7.22;3.47;;;;;;;;;;6261585;28;20051;-61
2023/03/14 08:41:29;;;;;;;9.77;4.45;;;;;;;;;;6263213;28;20045;-61
2023/03/14 08:44:30;;;;;;;8.82;3.63;;;;;;;;;;6261547;28;20643;-61
2023/03/14 08:47:31;;;;;;;7.50;3.60;;;;;;;;;;6261092;28;20412;-61
2023/03/14 08:50:31;;;;;;;7.68;4.13;;;;;;;;;;6262971;28;20369;-61
2023/03/14 08:53:32;;;;;;;8.32;3.80;;;;;;;;;;6260524;28;20049;-62
2023/03/14 08:56:33;;;;;;;6.72;3.25;;;;;;;;;;6261115;28;20052;-61
2023/03/14 08:59:33;;;;;;;7.93;3.70;;;;;;;;;;6260623;28;20053;-61
2023/03/14 09:02:34;;;;;;;6.70;3.92;;;;;;;;;;6261098;28;20084;-62
2023/03/14 09:05:34;;;;;;;8.88;3.90;;;;;;;;;;6262070;28;20710;-61
2023/03/14 09:08:36;;;;;;;6.90;3.60;;;;;;;;;;6262532;28;20045;-61
2023/03/14 09:11:36;;;;;;;6.60;3.53;;;;;;;;;;6260508;28;20117;-62
2023/03/14 09:14:37;;;;;;;6.68;4.07;;;;;;;;;;6261150;28;20044;-61
2023/03/14 09:17:38;;;;;;;6.90;3.45;;;;;;;;;;6263246;28;20405;-61
2023/03/14 09:20:39;;;;;;;8.30;3.60;;;;;;;;;;6260135;28;20700;-61
2023/03/14 09:23:40;;;;;;;7.43;3.72;;;;;;;;;;6259597;28;20495;-61
2023/03/14 09:26:41;;;;;;;8.10;3.47;;;;;;;;;;6262931;28;20094;-61
2023/03/14 09:29:41;;;;;;;7.85;3.78;;;;;;;;;;6261389;28;20049;-61
2023/03/14 09:32:42;;;;;;;7.65;3.65;;;;;;;;;;6259916;28;20052;-62
2023/03/14 09:35:42;;;;;;;8.88;3.92;;;;;;;;;;6261892;28;20053;-61
2023/03/14 09:38:43;;;;;;;7.88;3.92;;;;;;;;;;6262829;28;20041;-61
2023/03/14 09:41:47;;;;;;;6.47;3.70;;;;;;;;;;6261275;28;20049;-61
2023/03/14 09:44:59;;;;;;;7.88;3.65;;;;;;;;;;6262109;28;20048;-61
2023/03/14 09:48:01;;;;;;;6.97;3.23;;;;;;;;;;6262075;28;20639;-61
2023/03/14 09:51:07;;;;;;;10.10;3.72;;;;;;;;;;6261030;28;20389;-61
2023/03/14 09:54:29;;;;;;;8.25;3.30;;;;;;;;;;6259737;28;20123;-62
2023/03/14 09:57:33;;;;;;;6.95;3.60;;;;;;;;;;6259160;28;20051;-61
2023/03/14 10:00:35;;;;;;;5.93;3.17;;;;;;;;;;6262138;28;20135;-61
2023/03/14 10:03:35;;;;;;;11.93;3.55;;;;;;;;;;6261311;28;20067;-61
2023/03/14 10:06:36;;;;;;;6.70;3.38;;;;;;;;;;6258065;28;20049;-61
2023/03/14 10:09:37;;;;;;;7.40;3.30;;;;;;;;;;6260205;28;20052;-61
2023/03/14 10:12:41;;;;;;;5.72;3.03;;;;;;;;;;6261412;28;20048;-61
2023/03/14 10:15:47;;;;;;;6.40;3.53;;;;;;;;;;6260295;28;20045;-61
2023/03/14 10:18:48;;;;;;;7.10;3.20;;;;;;;;;;6261995;28;20040;-61
2023/03/14 10:22:01;;;;;;;6.65;3.63;;;;;;;;;;6260997;28;20052;-61
2023/03/14 10:25:04;;;;;;;5.97;3.05;;;;;;;;;;6260150;28;20090;-61
2023/03/14 10:28:11;;;;;;;10.35;3.50;;;;;;;;;;6257924;28;20140;-61
2023/03/14 10:31:12;;;;;;;6.93;3.45;;;;;;;;;;6260328;28;20041;-59
2023/03/14 10:34:17;;;;;;;6.90;3.33;;;;;;;;;;6260828;28;20045;-62
2023/03/14 10:37:25;;;;;;;5.93;3.17;;;;;;;;;;6260011;28;20045;-61
2023/03/14 10:40:37;;;;;;;8.63;3.30;;;;;;;;;;6262960;28;20171;-62
2023/03/14 10:43:38;;;;;;;7.90;3.40;;;;;;;;;;6260384;28;20132;-62
2023/03/14 10:46:40;;;;;;;7.30;3.05;;;;;;;;;;6260332;28;20084;-61
2023/03/14 10:49:41;;;;;;;8.48;3.47;;;;;;;;;;6259569;28;20969;-61
2023/03/14 10:52:48;;;;;;;8.15;3.30;;;;;;;;;;6261898;28;20060;-61
2023/03/14 10:55:49;;;;;;;6.43;3.20;;;;;;;;;;6261271;28;20600;-61
2023/03/14 10:58:52;;;;;;;5.90;3.30;;;;;;;;;;6258850;28;20049;-62
2023/03/14 11:02:02;;;;;;;8.20;3.13;;;;;;;;;;6260342;28;20076;-62
2023/03/14 11:05:25;;;;;;;7.40;3.22;;;;;;;;;;6260100;28;20083;-62
2023/03/14 11:08:49;;;;;;;6.10;3.25;;;;;;;;;;6256616;28;20081;-61
2023/03/14 11:11:50;;;;;;;10.75;3.45;;;;;;;;;;6256413;28;22336;-62
2023/03/14 11:14:57;;;;;;;6.07;3.10;;;;;;;;;;6259303;28;20048;-61
2023/03/14 11:18:09;;;;;;;7.43;2.97;;;;;;;;;;6264168;28;20503;-61
2023/03/14 11:21:29;;;;;;;6.50;2.92;;;;;;;;;;6265820;28;20098;-62
2023/03/14 11:25:03;;;;;;;6.57;3.40;;;;;;;;;;6262944;28;20053;-61
2023/03/14 11:28:22;;;;;;;6.80;3.75;;;;;;;;;;6260690;28;20087;-61
2023/03/14 11:31:33;;;;;;;7.70;3.90;;;;;;;;;;6264177;28;20051;-61
2023/03/14 11:34:43;;;;;;;10.43;4.60;;;;;;;;;;6264123;28;20677;-61
2023/03/14 11:37:55;;;;;;;9.73;5.13;;;;;;;;;;6262924;28;20102;-61
2023/03/14 11:40:57;;;;;;;12.17;7.43;;;;;;;;;;6262053;28;20137;-61
2023/03/14 11:44:03;;;;;;;7.53;4.50;;;;;;;;;;6269476;28;20057;-61
2023/03/14 11:47:34;;;;;;;8.73;4.25;;;;;;;;;;6267405;28;20056;-61
2023/03/14 11:50:36;;;;;;;11.80;4.85;;;;;;;;;;6265901;28;20094;-61
2023/03/14 11:53:48;;;;;;;8.68;4.72;;;;;;;;;;6263908;28;20071;-61
2023/03/14 11:57:00;;;;;;;7.60;4.78;;;;;;;;;;6263356;28;20064;-61
2023/03/14 12:00:13;;;;;;;11.27;5.82;;;;;;;;;;6262233;28;20049;-61
2023/03/14 12:03:44;;;;;;;9.98;5.80;;;;;;;;;;6262487;28;20057;-61
2023/03/14 12:06:51;;;;;;;9.45;6.05;;;;;;;;;;6261587;28;20061;-61
2023/03/14 12:09:53;;;;;;;9.00;4.03;;;;;;;;;;6263579;28;20053;-62
2023/03/14 12:12:54;;;;;;;11.95;5.03;;;;;;;;;;6264752;28;20079;-61
2023/03/14 12:15:58;;;;;;;12.63;6.55;;;;;;;;;;6261909;28;20072;-62
2023/03/14 12:19:22;;;;;;;9.68;4.20;;;;;;;;;;6264377;28;20075;-61
2023/03/14 12:22:27;;;;;;;9.48;4.30;;;;;;;;;;6262760;28;20110;-61
2023/03/14 12:25:30;;;;;;;7.03;4.00;;;;;;;;;;6263266;28;20087;-61
2023/03/14 12:28:31;;;;;;;8.13;3.78;;;;;;;;;;6261550;28;20063;-55
2023/03/14 12:31:42;;;;;;;9.75;4.47;;;;;;;;;;6262519;28;20041;-63
2023/03/14 12:34:45;;;;;;;8.25;4.22;;;;;;;;;;6262492;28;20044;-61
2023/03/14 12:37:51;;;;;;;8.77;4.60;;;;;;;;;;6261329;28;20095;-62
2023/03/14 12:41:17;;;;;;;9.48;4.35;;;;;;;;;;6263323;28;20047;-61
2023/03/14 12:44:29;;;;;;;10.70;4.45;;;;;;;;;;6265360;28;20106;-61
2023/03/14 12:47:30;;;;;;;9.98;4.10;;;;;;;;;;6264975;28;20098;-61
2023/03/14 12:50:41;;;;;;;7.78;4.28;;;;;;;;;;6261776;28;20057;-61
2023/03/14 12:53:52;;;;;;;;;;;;;;;;;;6264064;28;20424;-61
2023/03/14 12:57:13;;;;;;;11.73;5.40;;;;;;;;;;6262132;28;19978;-61
2023/03/14 13:00:54;;;;;;;8.68;4.82;;;;;;;;;;6262092;28;20056;-61
2023/03/14 13:03:58;;;;;;;6.80;4.15;;;;;;;;;;6253351;28;20064;-61
2023/03/14 13:07:01;;;;;;;12.70;8.68;;;;;;;;;;6260195;28;20045;-61
2023/03/14 13:10:07;;;;;;;10.27;5.30;;;;;;;;;;6265456;28;20049;-61
2023/03/14 13:13:14;;;;;;;8.32;4.13;;;;;;;;;;6263285;28;20044;-61
2023/03/14 13:16:18;;;;;;;6.75;3.33;;;;;;;;;;6261708;28;20524;-61
2023/03/14 13:19:23;;;;;;;8.68;3.65;;;;;;;;;;6263212;28;20843;-61
2023/03/14 13:22:27;;;;;;;6.18;3.38;;;;;;;;;;6261825;28;20044;-61
2023/03/14 13:25:33;;;;;;;7.90;3.45;;;;;;;;;;6257869;28;20045;-61
2023/03/14 13:28:34;;;;;;;6.50;3.17;;;;;;;;;;6259994;28;20164;-63
2023/03/14 13:31:35;;;;;;;7.55;3.42;;;;;;;;;;6262739;28;20049;-62
2023/03/14 13:34:35;;;;;;;6.40;3.38;;;;;;;;;;6260807;28;20114;-61
2023/03/14 13:37:39;;;;;;;7.78;3.00;;;;;;;;;;6262987;28;20056;-61
2023/03/14 13:40:43;;;;;;;10.15;5.13;;;;;;;;;;6266704;28;20052;-60
2023/03/14 13:43:44;;;;;;;6.90;3.65;;;;;;;;;;6263255;28;20687;-61
2023/03/14 13:46:44;;;;;;;10.07;3.50;;;;;;;;;;6259353;28;20048;-61
2023/03/14 13:49:46;;;;;;;7.50;3.42;;;;;;;;;;6262305;28;20067;-61
2023/03/14 13:52:48;;;;;;;6.32;3.10;;;;;;;;;;6261859;28;20103;-60
2023/03/14 13:55:50;;;;;;;6.30;3.33;;;;;;;;;;6259017;28;20048;-60
2023/03/14 13:58:50;;;;;;;15.05;6.80;;;;;;;;;;6262288;28;20052;-61
2023/03/14 14:01:52;;;;;;;12.30;8.00;;;;;;;;;;6261424;28;20099;-60
2023/03/14 14:04:53;;;;;;;11.43;7.05;;;;;;;;;;6258495;28;20053;-61
2023/03/14 14:07:55;;;;;;;18.08;7.07;;;;;;;;;;6259388;28;20067;-60
2023/03/14 14:11:00;;;;;;;6.32;2.88;;;;;;;;;;6261391;28;20381;-60
2023/03/14 14:14:01;;;;;;;5.68;2.78;;;;;;;;;;6259932;28;20049;-61
2023/03/14 14:17:05;;;;;;;5.20;2.92;;;;;;;;;;6263918;28;20052;-60
2023/03/14 14:20:12;;;;;;;8.52;3.30;;;;;;;;;;6255766;28;20053;-60
2023/03/14 14:23:16;;;;;;;6.20;3.10;;;;;;;;;;6245485;28;20055;-60
2023/03/14 14:26:19;;;;;;;5.85;3.20;;;;;;;;;;6249406;28;20049;-60
2023/03/14 14:29:24;;;;;;;;;;;;;;;;;;6248335;28;20057;-60
2023/03/14 14:32:25;;;;;;;9.27;3.67;;;;;;;;;;6250569;28;19951;-61
2023/03/14 14:35:32;;;;;;;10.45;5.32;;;;;;;;;;6249967;28;20044;-60
2023/03/14 14:38:33;;;;;;;7.30;3.85;;;;;;;;;;6248387;28;20049;-60
2023/03/14 14:41:39;;;;;;;8.70;3.10;;;;;;;;;;6243894;28;20052;-61
2023/03/14 14:44:42;;;;;;;8.20;3.67;;;;;;;;;;6251204;28;20045;-61
2023/03/14 14:47:51;;;;;;;9.38;4.70;;;;;;;;;;6253268;28;20095;-60
2023/03/14 14:50:59;;;;;;;10.52;6.57;;;;;;;;;;6252537;28;20811;-60
2023/03/14 14:54:03;;;;;;;16.75;12.18;;;;;;;;;;6250043;28;20059;-60
2023/03/14 14:57:06;;;;;;;36.70;25.30;;;;;;;;;;6252418;28;20085;-60
2023/03/14 15:00:18;;;;;;;25.38;16.33;;;;;;;;;;6251390;28;20055;-60
2023/03/14 15:03:19;;;;;;;8.63;4.28;;;;;;;;;;6252259;28;20056;-60
2023/03/14 15:06:20;;;;;;;10.27;4.75;;;;;;;;;;6252892;28;20488;-60
2023/03/14 15:09:21;;;;;;;5.22;2.30;;;;;;;;;;6251481;28;20049;-60
2023/03/14 15:12:24;;;;;;;6.45;3.20;;;;;;;;;;6251476;28;20147;-60
2023/03/14 15:15:25;;;;;;;6.30;2.63;;;;;;;;;;6239116;28;20140;-59
2023/03/14 15:18:30;;;;;;;5.90;2.95;;;;;;;;;;6248393;28;20059;-61
2023/03/14 15:21:31;;;;;;;5.75;2.40;;;;;;;;;;6245228;28;20055;-58
2023/03/14 15:24:31;;;;;;;5.50;2.50;;;;;;;;;;6247246;28;20575;-60
2023/03/14 15:27:32;;;;;;;7.45;2.63;;;;;;;;;;6248725;28;20057;-60
2023/03/14 15:30:33;;;;;;;5.47;2.90;;;;;;;;;;6247276;28;20053;-60
2023/03/14 15:33:34;;;;;;;5.07;2.30;;;;;;;;;;6244537;28;20049;-60
2023/03/14 15:36:36;;;;;;;10.73;3.50;;;;;;;;;;6247384;28;20049;-61
2023/03/14 15:39:37;;;;;;;6.55;2.28;;;;;;;;;;6247003;28;20053;-61
2023/03/14 15:42:38;;;;;;;7.05;2.78;;;;;;;;;;6243411;28;20103;-60
2023/03/14 15:45:41;;;;;;;5.30;2.58;;;;;;;;;;6246194;28;20045;-58
2023/03/14 15:48:41;;;;;;;6.35;2.90;;;;;;;;;;6250725;28;20049;-60
2023/03/14 15:51:42;;;;;;;9.73;4.63;;;;;;;;;;6243967;28;20416;-60
2023/03/14 15:54:42;;;;;;;10.13;5.40;;;;;;;;;;6248351;28;20057;-60
2023/03/14 15:57:45;;;;;;;9.98;5.82;;;;;;;;;;6247585;28;20676;-61
2023/03/14 16:00:45;;;;;;;8.70;4.63;;;;;;;;;;6244605;28;20076;-60
2023/03/14 16:03:48;;;;;;;10.23;7.05;;;;;;;;;;6249377;28;20480;-61
2023/03/14 16:06:48;;;;;;;13.43;7.93;;;;;;;;;;6251097;28;20440;-60
2023/03/14 16:09:49;;;;;;;14.18;9.20;;;;;;;;;;6251173;28;20053;-61
2023/03/14 16:12:50;;;;;;;20.88;9.85;;;;;;;;;;6249192;28;20044;-61
2023/03/14 16:15:54;;;;;;;16.88;8.57;;;;;;;;;;6251728;28;20045;-60
2023/03/14 16:18:55;;;;;;;13.85;8.20;;;;;;;;;;6250966;28;20049;-60
2023/03/14 16:21:56;;;;;;;13.05;6.50;;;;;;;;;;6249526;28;20550;-61
2023/03/14 16:24:56;;;;;;;10.13;4.65;;;;;;;;;;6252958;28;20500;-61
2023/03/14 16:27:57;;;;;;;15.07;5.22;;;;;;;;;;6250788;28;20053;-61
2023/03/14 16:31:06;;;;;;;11.32;5.78;;;;;;;;;;6250195;28;20041;-61
2023/03/14 16:34:07;;;;;;;11.45;6.10;;;;;;;;;;6250333;28;21011;-60
2023/03/14 16:37:07;;;;;;;7.53;3.75;;;;;;;;;;6252223;28;20045;-61
2023/03/14 16:40:09;;;;;;;7.00;3.40;;;;;;;;;;6250457;28;20049;-60
2023/03/14 16:43:09;;;;;;;17.58;6.68;;;;;;;;;;6248032;28;20045;-60
2023/03/14 16:46:15;;;;;;;21.35;8.55;;;;;;;;;;6250744;28;20064;-60
2023/03/14 16:49:16;;;;;;;13.23;5.82;;;;;;;;;;6251605;28;20084;-60
2023/03/14 16:52:17;;;;;;;23.40;11.30;;;;;;;;;;6250246;28;20068;-60
2023/03/14 16:55:17;;;;;;;8.88;4.35;;;;;;;;;;6252963;28;20048;-60
2023/03/14 16:58:20;;;;;;;11.65;6.10;;;;;;;;;;6252351;28;20049;-61
2023/03/14 17:01:20;;;;;;;20.52;8.27;;;;;;;;;;6248434;28;20392;-61
2023/03/14 17:04:22;;;;;;;14.32;6.97;;;;;;;;;;6234057;28;20053;-60
2023/03/14 17:07:23;;;;;;;23.88;10.77;;;;;;;;;;6251727;28;20056;-60
2023/03/14 17:10:24;;;;;;;18.30;8.50;;;;;;;;;;6251070;28;20491;-61
2023/03/14 17:13:26;;;;;;;19.23;9.23;;;;;;;;;;6253678;28;20059;-61
2023/03/14 17:16:28;;;;;;;18.73;10.07;;;;;;;;;;6256886;28;20049;-61
2023/03/14 17:19:28;;;;;;;20.58;11.85;;;;;;;;;;6259671;28;20053;-61
2023/03/14 17:22:29;;;;;;;12.18;6.95;;;;;;;;;;6255774;28;20542;-62
2023/03/14 17:25:30;;;;;;;10.85;5.88;;;;;;;;;;6259317;28;20573;-61
2023/03/14 17:28:31;;;;;;;11.73;7.57;;;;;;;;;;6257632;28;20065;-62
2023/03/14 17:31:32;;;;;;;10.68;6.43;;;;;;;;;;6255376;28;20048;-61
2023/03/14 17:34:33;;;;;;;15.13;7.45;;;;;;;;;;6258454;28;20083;-62
2023/03/14 17:37:33;;;;;;;14.52;6.60;;;;;;;;;;6259087;28;20712;-61
2023/03/14 17:40:34;;;;;;;13.85;7.50;;;;;;;;;;6258188;28;20072;-61
2023/03/14 17:43:35;;;;;;;11.43;6.90;;;;;;;;;;6255865;28;20065;-62
2023/03/14 17:46:35;;;;;;;17.25;9.20;;;;;;;;;;6258619;28;20045;-61
2023/03/14 17:49:37;;;;;;;31.25;15.50;;;;;;;;;;6258290;28;20059;-63
2023/03/14 17:52:38;;;;;;;24.00;11.55;;;;;;;;;;6255014;28;20053;-61
2023/03/14 17:55:41;;;;;;;32.55;15.60;;;;;;;;;;6258776;28;20053;-61
2023/03/14 17:58:43;;;;;;;29.58;13.07;;;;;;;;;;6258084;28;20049;-62
2023/03/14 18:01:43;;;;;;;98.30;42.37;;;;;;;;;;6255387;28;20098;-61
2023/03/14 18:04:44;;;;;;;36.13;17.63;;;;;;;;;;6257564;28;20064;-62
2023/03/14 18:07:45;;;;;;;36.85;20.85;;;;;;;;;;6258582;28;20060;-62